sensor_id;sensor_type;location;lat;lon;timestamp;temperature;humidity
44982;DHT22;30716;41.740;-70.400;2022-10-22T00:00:32;24.00;55.80
44982;DHT22;30716;41.740;-70.400;2022-10-22T00:02:58;24.00;56.60
44982;DHT22;30716;41.740;-70.400;2022-10-22T00:05:24;24.00;55.90
44982;DHT22;30716;41.740;-70.400;2022-10-22T00:07:50;24.00;55.90
44982;DHT22;30716;41.740;-70.400;2022-10-22T00:10:16;24.00;55.90
44982;DHT22;30716;41.740;-70.400;2022-10-22T00:12:44;24.00;55.80
44982;DHT22;30716;41.740;-70.400;2022-10-22T00:15:10;24.00;56.00
44982;DHT22;30716;41.740;-70.400;2022-10-22T00:17:37;24.00;55.90
44982;DHT22;30716;41.740;-70.400;2022-10-22T00:20:04;24.00;55.90
44982;DHT22;30716;41.740;-70.400;2022-10-22T00:22:30;24.00;55.90
44982;DHT22;30716;41.740;-70.400;2022-10-22T00:24:56;24.00;56.00
44982;DHT22;30716;41.740;-70.400;2022-10-22T00:27:23;24.00;55.90
44982;DHT22;30716;41.740;-70.400;2022-10-22T00:29:49;24.00;56.00
44982;DHT22;30716;41.740;-70.400;2022-10-22T00:32:15;24.10;56.10
44982;DHT22;30716;41.740;-70.400;2022-10-22T00:34:41;24.00;55.90
44982;DHT22;30716;41.740;-70.400;2022-10-22T00:37:07;24.00;56.00
44982;DHT22;30716;41.740;-70.400;2022-10-22T00:39:33;24.00;56.00
44982;DHT22;30716;41.740;-70.400;2022-10-22T00:41:59;24.00;56.00
44982;DHT22;30716;41.740;-70.400;2022-10-22T00:45:02;24.00;56.00
44982;DHT22;30716;41.740;-70.400;2022-10-22T00:47:51;24.10;56.10
44982;DHT22;30716;41.740;-70.400;2022-10-22T00:50:22;24.00;56.00
44982;DHT22;30716;41.740;-70.400;2022-10-22T00:52:49;24.10;56.10
44982;DHT22;30716;41.740;-70.400;2022-10-22T00:55:17;24.00;56.00
44982;DHT22;30716;41.740;-70.400;2022-10-22T00:57:44;24.10;56.10
44982;DHT22;30716;41.740;-70.400;2022-10-22T01:00:11;24.10;56.10
44982;DHT22;30716;41.740;-70.400;2022-10-22T01:02:37;24.10;56.00
44982;DHT22;30716;41.740;-70.400;2022-10-22T01:05:04;24.10;56.00
44982;DHT22;30716;41.740;-70.400;2022-10-22T01:07:30;24.10;56.00
44982;DHT22;30716;41.740;-70.400;2022-10-22T01:10:16;24.00;55.90
44982;DHT22;30716;41.740;-70.400;2022-10-22T01:18:01;24.10;56.00
44982;DHT22;30716;41.740;-70.400;2022-10-22T01:31:12;24.10;56.10
44982;DHT22;30716;41.740;-70.400;2022-10-22T01:33:41;24.10;56.00
44982;DHT22;30716;41.740;-70.400;2022-10-22T01:36:08;24.10;56.00
44982;DHT22;30716;41.740;-70.400;2022-10-22T01:38:36;24.10;56.10
44982;DHT22;30716;41.740;-70.400;2022-10-22T01:41:03;24.10;56.00
44982;DHT22;30716;41.740;-70.400;2022-10-22T01:43:29;24.10;56.00
44982;DHT22;30716;41.740;-70.400;2022-10-22T01:45:59;24.10;56.10
44982;DHT22;30716;41.740;-70.400;2022-10-22T01:51:34;24.10;56.10
44982;DHT22;30716;41.740;-70.400;2022-10-22T02:05:10;24.10;56.20
44982;DHT22;30716;41.740;-70.400;2022-10-22T02:07:49;24.10;56.10
44982;DHT22;30716;41.740;-70.400;2022-10-22T02:10:16;24.10;56.00
44982;DHT22;30716;41.740;-70.400;2022-10-22T02:12:47;24.10;56.10
44982;DHT22;30716;41.740;-70.400;2022-10-22T02:15:15;24.10;56.10
44982;DHT22;30716;41.740;-70.400;2022-10-22T02:17:45;24.10;56.10
44982;DHT22;30716;41.740;-70.400;2022-10-22T02:20:25;24.10;56.10
44982;DHT22;30716;41.740;-70.400;2022-10-22T02:22:52;24.10;56.10
44982;DHT22;30716;41.740;-70.400;2022-10-22T02:25:21;24.10;56.20
44982;DHT22;30716;41.740;-70.400;2022-10-22T02:27:53;24.10;56.20
44982;DHT22;30716;41.740;-70.400;2022-10-22T02:30:22;24.10;56.10
44982;DHT22;30716;41.740;-70.400;2022-10-22T02:32:56;24.10;56.20
44982;DHT22;30716;41.740;-70.400;2022-10-22T02:35:25;24.10;56.10
44982;DHT22;30716;41.740;-70.400;2022-10-22T02:37:54;24.10;56.10
44982;DHT22;30716;41.740;-70.400;2022-10-22T02:40:21;24.10;56.10
44982;DHT22;30716;41.740;-70.400;2022-10-22T02:42:49;24.10;56.10
44982;DHT22;30716;41.740;-70.400;2022-10-22T02:45:16;24.10;56.10
44982;DHT22;30716;41.740;-70.400;2022-10-22T02:47:43;24.10;56.20
44982;DHT22;30716;41.740;-70.400;2022-10-22T02:50:09;24.10;56.10
44982;DHT22;30716;41.740;-70.400;2022-10-22T02:52:35;24.10;56.10
44982;DHT22;30716;41.740;-70.400;2022-10-22T02:55:02;24.10;56.10
44982;DHT22;30716;41.740;-70.400;2022-10-22T02:57:28;24.10;56.20
44982;DHT22;30716;41.740;-70.400;2022-10-22T02:59:54;24.10;56.10
44982;DHT22;30716;41.740;-70.400;2022-10-22T03:02:23;24.10;56.10
44982;DHT22;30716;41.740;-70.400;2022-10-22T03:04:49;24.10;56.20
44982;DHT22;30716;41.740;-70.400;2022-10-22T03:07:15;24.10;56.10
44982;DHT22;30716;41.740;-70.400;2022-10-22T03:09:41;24.10;56.10
44982;DHT22;30716;41.740;-70.400;2022-10-22T03:12:08;24.10;56.10
44982;DHT22;30716;41.740;-70.400;2022-10-22T03:14:34;24.10;56.20
44982;DHT22;30716;41.740;-70.400;2022-10-22T03:17:01;24.10;56.20
44982;DHT22;30716;41.740;-70.400;2022-10-22T03:19:27;24.10;56.20
44982;DHT22;30716;41.740;-70.400;2022-10-22T03:21:56;24.10;56.20
44982;DHT22;30716;41.740;-70.400;2022-10-22T03:24:26;24.10;56.20
44982;DHT22;30716;41.740;-70.400;2022-10-22T03:26:53;24.10;56.10
44982;DHT22;30716;41.740;-70.400;2022-10-22T03:29:21;24.10;56.20
44982;DHT22;30716;41.740;-70.400;2022-10-22T03:31:48;24.10;56.10
44982;DHT22;30716;41.740;-70.400;2022-10-22T03:34:14;24.10;56.00
44982;DHT22;30716;41.740;-70.400;2022-10-22T03:36:41;24.10;56.10
44982;DHT22;30716;41.740;-70.400;2022-10-22T03:39:07;24.10;56.10
44982;DHT22;30716;41.740;-70.400;2022-10-22T03:41:33;24.10;56.10
44982;DHT22;30716;41.740;-70.400;2022-10-22T03:44:01;24.10;56.10
44982;DHT22;30716;41.740;-70.400;2022-10-22T03:46:28;24.10;56.20
44982;DHT22;30716;41.740;-70.400;2022-10-22T03:48:54;24.10;56.20
44982;DHT22;30716;41.740;-70.400;2022-10-22T03:51:20;24.10;56.10
44982;DHT22;30716;41.740;-70.400;2022-10-22T03:53:46;24.10;56.10
44982;DHT22;30716;41.740;-70.400;2022-10-22T03:56:13;24.10;56.10
44982;DHT22;30716;41.740;-70.400;2022-10-22T03:58:40;24.10;56.10
44982;DHT22;30716;41.740;-70.400;2022-10-22T04:01:08;24.10;56.20
44982;DHT22;30716;41.740;-70.400;2022-10-22T04:03:34;24.10;56.20
44982;DHT22;30716;41.740;-70.400;2022-10-22T04:06:06;24.10;56.20
44982;DHT22;30716;41.740;-70.400;2022-10-22T04:08:32;24.10;56.20
44982;DHT22;30716;41.740;-70.400;2022-10-22T04:10:58;24.10;56.20
44982;DHT22;30716;41.740;-70.400;2022-10-22T04:13:25;24.10;56.20
44982;DHT22;30716;41.740;-70.400;2022-10-22T04:15:51;24.10;56.20
44982;DHT22;30716;41.740;-70.400;2022-10-22T04:18:18;24.10;56.10
44982;DHT22;30716;41.740;-70.400;2022-10-22T04:20:44;24.10;56.10
44982;DHT22;30716;41.740;-70.400;2022-10-22T04:23:11;24.10;56.10
44982;DHT22;30716;41.740;-70.400;2022-10-22T04:25:37;24.10;56.10
44982;DHT22;30716;41.740;-70.400;2022-10-22T04:28:07;24.10;56.20
44982;DHT22;30716;41.740;-70.400;2022-10-22T04:30:35;24.10;56.20
44982;DHT22;30716;41.740;-70.400;2022-10-22T04:33:02;24.10;56.20
44982;DHT22;30716;41.740;-70.400;2022-10-22T04:35:28;24.10;56.20
44982;DHT22;30716;41.740;-70.400;2022-10-22T04:37:54;24.10;56.20
44982;DHT22;30716;41.740;-70.400;2022-10-22T04:40:21;24.10;56.20
44982;DHT22;30716;41.740;-70.400;2022-10-22T04:42:47;24.10;56.30
44982;DHT22;30716;41.740;-70.400;2022-10-22T04:45:13;24.10;57.10
44982;DHT22;30716;41.740;-70.400;2022-10-22T04:47:40;24.10;56.40
44982;DHT22;30716;41.740;-70.400;2022-10-22T04:50:06;24.10;56.40
44982;DHT22;30716;41.740;-70.400;2022-10-22T04:52:33;24.10;56.40
44982;DHT22;30716;41.740;-70.400;2022-10-22T04:54:59;24.10;56.40
44982;DHT22;30716;41.740;-70.400;2022-10-22T04:57:29;24.10;56.30
44982;DHT22;30716;41.740;-70.400;2022-10-22T04:59:55;24.10;56.40
44982;DHT22;30716;41.740;-70.400;2022-10-22T05:02:21;24.10;56.30
44982;DHT22;30716;41.740;-70.400;2022-10-22T05:04:47;24.10;56.40
44982;DHT22;30716;41.740;-70.400;2022-10-22T05:07:14;24.10;56.30
44982;DHT22;30716;41.740;-70.400;2022-10-22T05:09:40;24.10;56.30
44982;DHT22;30716;41.740;-70.400;2022-10-22T05:12:06;24.10;56.30
44982;DHT22;30716;41.740;-70.400;2022-10-22T05:14:32;24.10;56.30
44982;DHT22;30716;41.740;-70.400;2022-10-22T05:16:58;24.10;56.30
44982;DHT22;30716;41.740;-70.400;2022-10-22T05:19:26;24.10;56.40
44982;DHT22;30716;41.740;-70.400;2022-10-22T05:21:56;24.10;56.30
44982;DHT22;30716;41.740;-70.400;2022-10-22T05:24:24;24.10;56.40
44982;DHT22;30716;41.740;-70.400;2022-10-22T05:26:54;24.10;56.30
44982;DHT22;30716;41.740;-70.400;2022-10-22T05:29:21;24.10;56.30
44982;DHT22;30716;41.740;-70.400;2022-10-22T05:31:47;24.10;56.30
44982;DHT22;30716;41.740;-70.400;2022-10-22T05:34:14;24.10;56.40
44982;DHT22;30716;41.740;-70.400;2022-10-22T05:36:40;24.10;56.30
44982;DHT22;30716;41.740;-70.400;2022-10-22T05:39:06;24.10;56.40
44982;DHT22;30716;41.740;-70.400;2022-10-22T05:41:33;24.10;56.40
44982;DHT22;30716;41.740;-70.400;2022-10-22T05:44:04;24.10;56.30
44982;DHT22;30716;41.740;-70.400;2022-10-22T05:46:33;24.20;56.50
44982;DHT22;30716;41.740;-70.400;2022-10-22T05:49:02;24.10;56.30
44982;DHT22;30716;41.740;-70.400;2022-10-22T05:51:30;24.10;56.40
44982;DHT22;30716;41.740;-70.400;2022-10-22T05:53:59;24.10;56.40
44982;DHT22;30716;41.740;-70.400;2022-10-22T05:56:27;24.20;56.40
44982;DHT22;30716;41.740;-70.400;2022-10-22T05:58:53;24.20;56.40
44982;DHT22;30716;41.740;-70.400;2022-10-22T06:01:22;24.20;56.40
44982;DHT22;30716;41.740;-70.400;2022-10-22T06:03:51;24.20;56.40
44982;DHT22;30716;41.740;-70.400;2022-10-22T06:06:34;24.20;56.40
44982;DHT22;30716;41.740;-70.400;2022-10-22T06:09:24;24.20;56.30
44982;DHT22;30716;41.740;-70.400;2022-10-22T06:11:49;24.20;56.40
44982;DHT22;30716;41.740;-70.400;2022-10-22T06:14:16;24.20;56.50
44982;DHT22;30716;41.740;-70.400;2022-10-22T06:16:43;24.20;56.40
44982;DHT22;30716;41.740;-70.400;2022-10-22T06:19:11;24.20;56.40
44982;DHT22;30716;41.740;-70.400;2022-10-22T06:21:38;24.20;56.30
44982;DHT22;30716;41.740;-70.400;2022-10-22T06:24:05;24.20;56.30
44982;DHT22;30716;41.740;-70.400;2022-10-22T06:26:31;24.20;56.30
44982;DHT22;30716;41.740;-70.400;2022-10-22T06:28:58;24.20;56.30
44982;DHT22;30716;41.740;-70.400;2022-10-22T06:31:26;24.20;56.30
44982;DHT22;30716;41.740;-70.400;2022-10-22T06:33:52;24.20;56.20
44982;DHT22;30716;41.740;-70.400;2022-10-22T06:36:21;24.20;56.30
44982;DHT22;30716;41.740;-70.400;2022-10-22T06:38:51;24.20;56.20
44982;DHT22;30716;41.740;-70.400;2022-10-22T06:41:17;24.20;56.20
44982;DHT22;30716;41.740;-70.400;2022-10-22T06:43:44;24.20;56.30
44982;DHT22;30716;41.740;-70.400;2022-10-22T06:46:16;24.20;57.00
44982;DHT22;30716;41.740;-70.400;2022-10-22T06:48:46;24.20;56.30
44982;DHT22;30716;41.740;-70.400;2022-10-22T06:51:13;24.20;56.20
44982;DHT22;30716;41.740;-70.400;2022-10-22T06:53:39;24.20;56.30
44982;DHT22;30716;41.740;-70.400;2022-10-22T06:56:11;24.20;57.10
44982;DHT22;30716;41.740;-70.400;2022-10-22T06:58:37;24.20;56.30
44982;DHT22;30716;41.740;-70.400;2022-10-22T07:01:06;24.20;56.30
44982;DHT22;30716;41.740;-70.400;2022-10-22T07:03:33;24.20;56.40
44982;DHT22;30716;41.740;-70.400;2022-10-22T07:06:00;24.30;56.50
44982;DHT22;30716;41.740;-70.400;2022-10-22T07:08:26;24.20;56.40
44982;DHT22;30716;41.740;-70.400;2022-10-22T07:10:52;24.20;56.30
44982;DHT22;30716;41.740;-70.400;2022-10-22T07:13:18;24.30;56.40
44982;DHT22;30716;41.740;-70.400;2022-10-22T07:15:44;24.30;56.30
44982;DHT22;30716;41.740;-70.400;2022-10-22T07:18:10;24.20;56.30
44982;DHT22;30716;41.740;-70.400;2022-10-22T07:20:37;24.20;56.30
44982;DHT22;30716;41.740;-70.400;2022-10-22T07:23:03;24.30;56.40
44982;DHT22;30716;41.740;-70.400;2022-10-22T07:25:29;24.30;56.40
44982;DHT22;30716;41.740;-70.400;2022-10-22T07:27:55;24.20;56.30
44982;DHT22;30716;41.740;-70.400;2022-10-22T07:30:21;24.20;56.30
44982;DHT22;30716;41.740;-70.400;2022-10-22T07:32:47;24.20;56.30
44982;DHT22;30716;41.740;-70.400;2022-10-22T07:35:13;24.20;56.30
44982;DHT22;30716;41.740;-70.400;2022-10-22T07:37:39;24.30;56.40
44982;DHT22;30716;41.740;-70.400;2022-10-22T07:40:06;24.30;56.40
44982;DHT22;30716;41.740;-70.400;2022-10-22T07:42:32;24.20;56.30
44982;DHT22;30716;41.740;-70.400;2022-10-22T07:44:58;24.20;56.30
44982;DHT22;30716;41.740;-70.400;2022-10-22T07:47:24;24.20;56.30
44982;DHT22;30716;41.740;-70.400;2022-10-22T07:49:50;24.20;57.10
44982;DHT22;30716;41.740;-70.400;2022-10-22T07:52:16;24.20;56.30
44982;DHT22;30716;41.740;-70.400;2022-10-22T07:54:43;24.20;56.40
44982;DHT22;30716;41.740;-70.400;2022-10-22T07:57:09;24.20;56.40
44982;DHT22;30716;41.740;-70.400;2022-10-22T07:59:35;24.20;56.40
44982;DHT22;30716;41.740;-70.400;2022-10-22T08:02:01;24.20;56.40
44982;DHT22;30716;41.740;-70.400;2022-10-22T08:04:27;24.20;56.50
44982;DHT22;30716;41.740;-70.400;2022-10-22T08:06:54;24.20;56.40
44982;DHT22;30716;41.740;-70.400;2022-10-22T08:09:20;24.20;56.40
44982;DHT22;30716;41.740;-70.400;2022-10-22T08:11:46;24.20;56.50
44982;DHT22;30716;41.740;-70.400;2022-10-22T08:14:12;24.20;56.50
44982;DHT22;30716;41.740;-70.400;2022-10-22T08:16:38;24.20;56.50
44982;DHT22;30716;41.740;-70.400;2022-10-22T08:19:04;24.20;56.50
44982;DHT22;30716;41.740;-70.400;2022-10-22T08:21:30;24.20;56.50
44982;DHT22;30716;41.740;-70.400;2022-10-22T08:23:56;24.20;56.50
44982;DHT22;30716;41.740;-70.400;2022-10-22T08:26:22;24.10;56.40
44982;DHT22;30716;41.740;-70.400;2022-10-22T08:28:48;24.20;56.50
44982;DHT22;30716;41.740;-70.400;2022-10-22T08:31:14;24.20;56.50
44982;DHT22;30716;41.740;-70.400;2022-10-22T08:33:41;24.20;56.50
44982;DHT22;30716;41.740;-70.400;2022-10-22T08:36:08;24.20;56.50
44982;DHT22;30716;41.740;-70.400;2022-10-22T08:38:34;24.20;56.50
44982;DHT22;30716;41.740;-70.400;2022-10-22T08:41:12;24.20;56.50
44982;DHT22;30716;41.740;-70.400;2022-10-22T08:46:29;24.20;56.40
44982;DHT22;30716;41.740;-70.400;2022-10-22T08:49:00;24.20;56.50
44982;DHT22;30716;41.740;-70.400;2022-10-22T08:51:30;24.20;56.40
44982;DHT22;30716;41.740;-70.400;2022-10-22T08:54:05;24.20;56.40
44982;DHT22;30716;41.740;-70.400;2022-10-22T08:56:35;24.20;56.40
44982;DHT22;30716;41.740;-70.400;2022-10-22T08:59:09;24.20;56.40
44982;DHT22;30716;41.740;-70.400;2022-10-22T09:01:46;24.20;56.40
44982;DHT22;30716;41.740;-70.400;2022-10-22T09:07:14;24.20;56.40
44982;DHT22;30716;41.740;-70.400;2022-10-22T09:09:44;24.20;56.40
44982;DHT22;30716;41.740;-70.400;2022-10-22T09:12:16;24.20;56.40
44982;DHT22;30716;41.740;-70.400;2022-10-22T09:14:43;24.20;56.50
44982;DHT22;30716;41.740;-70.400;2022-10-22T09:20:23;24.20;56.30
44982;DHT22;30716;41.740;-70.400;2022-10-22T09:25:26;24.30;56.40
44982;DHT22;30716;41.740;-70.400;2022-10-22T09:27:53;24.20;56.20
44982;DHT22;30716;41.740;-70.400;2022-10-22T09:30:28;24.30;56.30
44982;DHT22;30716;41.740;-70.400;2022-10-22T09:35:55;24.30;56.30
44982;DHT22;30716;41.740;-70.400;2022-10-22T09:38:28;24.30;56.20
44982;DHT22;30716;41.740;-70.400;2022-10-22T09:40:56;24.20;56.30
44982;DHT22;30716;41.740;-70.400;2022-10-22T09:43:23;24.30;56.30
44982;DHT22;30716;41.740;-70.400;2022-10-22T09:46:01;24.20;56.20
44982;DHT22;30716;41.740;-70.400;2022-10-22T09:48:39;24.30;56.30
44982;DHT22;30716;41.740;-70.400;2022-10-22T09:51:19;24.30;56.30
44982;DHT22;30716;41.740;-70.400;2022-10-22T09:54:00;24.20;56.20
44982;DHT22;30716;41.740;-70.400;2022-10-22T09:56:35;24.20;56.10
44982;DHT22;30716;41.740;-70.400;2022-10-22T09:59:11;24.30;56.30
44982;DHT22;30716;41.740;-70.400;2022-10-22T10:01:38;24.20;56.30
44982;DHT22;30716;41.740;-70.400;2022-10-22T10:04:13;24.20;56.30
44982;DHT22;30716;41.740;-70.400;2022-10-22T10:06:42;24.20;56.20
44982;DHT22;30716;41.740;-70.400;2022-10-22T10:09:21;24.20;56.20
44982;DHT22;30716;41.740;-70.400;2022-10-22T10:26:02;24.20;56.30
44982;DHT22;30716;41.740;-70.400;2022-10-22T10:31:05;24.20;56.30
44982;DHT22;30716;41.740;-70.400;2022-10-22T10:33:59;24.20;56.20
44982;DHT22;30716;41.740;-70.400;2022-10-22T10:36:37;24.20;56.30
44982;DHT22;30716;41.740;-70.400;2022-10-22T10:49:34;24.20;56.30
44982;DHT22;30716;41.740;-70.400;2022-10-22T10:52:30;24.20;56.30
44982;DHT22;30716;41.740;-70.400;2022-10-22T10:55:19;24.20;56.30
44982;DHT22;30716;41.740;-70.400;2022-10-22T10:58:51;24.20;56.30
44982;DHT22;30716;41.740;-70.400;2022-10-22T11:01:07;24.20;56.30
44982;DHT22;30716;41.740;-70.400;2022-10-22T11:06:11;24.20;56.30
44982;DHT22;30716;41.740;-70.400;2022-10-22T11:11:34;24.30;56.30
44982;DHT22;30716;41.740;-70.400;2022-10-22T11:17:15;24.20;56.30
44982;DHT22;30716;41.740;-70.400;2022-10-22T11:22:54;24.30;56.20
44982;DHT22;30716;41.740;-70.400;2022-10-22T11:25:26;24.30;56.30
44982;DHT22;30716;41.740;-70.400;2022-10-22T11:30:31;24.30;56.20
44982;DHT22;30716;41.740;-70.400;2022-10-22T11:33:03;24.20;56.20
44982;DHT22;30716;41.740;-70.400;2022-10-22T11:35:39;24.30;56.20
44982;DHT22;30716;41.740;-70.400;2022-10-22T11:38:06;24.30;56.20
44982;DHT22;30716;41.740;-70.400;2022-10-22T11:40:55;24.20;56.20
44982;DHT22;30716;41.740;-70.400;2022-10-22T11:43:33;24.20;56.10
44982;DHT22;30716;41.740;-70.400;2022-10-22T11:46:24;24.20;56.10
44982;DHT22;30716;41.740;-70.400;2022-10-22T11:49:25;24.20;56.20
44982;DHT22;30716;41.740;-70.400;2022-10-22T11:51:50;24.20;56.20
44982;DHT22;30716;41.740;-70.400;2022-10-22T11:57:17;24.20;56.30
44982;DHT22;30716;41.740;-70.400;2022-10-22T11:59:49;24.20;56.30
44982;DHT22;30716;41.740;-70.400;2022-10-22T12:02:36;24.20;56.30
44982;DHT22;30716;41.740;-70.400;2022-10-22T12:08:00;24.20;56.20
44982;DHT22;30716;41.740;-70.400;2022-10-22T12:13:24;24.20;56.30
44982;DHT22;30716;41.740;-70.400;2022-10-22T12:16:01;24.20;56.30
44982;DHT22;30716;41.740;-70.400;2022-10-22T12:18:56;24.10;56.20
44982;DHT22;30716;41.740;-70.400;2022-10-22T12:21:23;24.20;56.40
44982;DHT22;30716;41.740;-70.400;2022-10-22T12:23:50;24.20;56.30
44982;DHT22;30716;41.740;-70.400;2022-10-22T12:26:30;24.10;56.30
44982;DHT22;30716;41.740;-70.400;2022-10-22T12:29:04;24.20;56.40
44982;DHT22;30716;41.740;-70.400;2022-10-22T12:31:36;24.10;57.10
44982;DHT22;30716;41.740;-70.400;2022-10-22T12:34:03;24.10;56.30
44982;DHT22;30716;41.740;-70.400;2022-10-22T12:36:32;24.10;56.30
44982;DHT22;30716;41.740;-70.400;2022-10-22T12:39:08;24.10;56.20
44982;DHT22;30716;41.740;-70.400;2022-10-22T12:41:35;24.10;56.40
44982;DHT22;30716;41.740;-70.400;2022-10-22T12:44:03;24.10;56.30
44982;DHT22;30716;41.740;-70.400;2022-10-22T12:46:32;24.10;56.30
44982;DHT22;30716;41.740;-70.400;2022-10-22T12:49:21;24.10;56.30
44982;DHT22;30716;41.740;-70.400;2022-10-22T12:51:46;24.10;56.40
44982;DHT22;30716;41.740;-70.400;2022-10-22T12:54:24;24.10;56.30
44982;DHT22;30716;41.740;-70.400;2022-10-22T12:56:53;24.10;56.40
44982;DHT22;30716;41.740;-70.400;2022-10-22T12:59:31;24.10;56.40
44982;DHT22;30716;41.740;-70.400;2022-10-22T13:01:58;24.10;56.40
44982;DHT22;30716;41.740;-70.400;2022-10-22T13:04:35;24.10;56.40
44982;DHT22;30716;41.740;-70.400;2022-10-22T13:09:38;24.10;56.40
44982;DHT22;30716;41.740;-70.400;2022-10-22T13:12:06;24.10;56.30
44982;DHT22;30716;41.740;-70.400;2022-10-22T13:14:37;24.10;56.50
44982;DHT22;30716;41.740;-70.400;2022-10-22T13:17:17;24.10;56.50
44982;DHT22;30716;41.740;-70.400;2022-10-22T13:24:52;24.10;56.50
44982;DHT22;30716;41.740;-70.400;2022-10-22T13:27:22;24.00;56.40
44982;DHT22;30716;41.740;-70.400;2022-10-22T13:29:48;24.10;56.60
44982;DHT22;30716;41.740;-70.400;2022-10-22T13:32:30;24.10;56.50
44982;DHT22;30716;41.740;-70.400;2022-10-22T13:35:01;24.10;56.50
44982;DHT22;30716;41.740;-70.400;2022-10-22T13:37:30;24.00;56.50
44982;DHT22;30716;41.740;-70.400;2022-10-22T13:39:57;24.10;56.50
44982;DHT22;30716;41.740;-70.400;2022-10-22T13:42:23;24.10;56.60
44982;DHT22;30716;41.740;-70.400;2022-10-22T13:44:49;24.10;56.60
44982;DHT22;30716;41.740;-70.400;2022-10-22T13:47:28;24.10;56.50
44982;DHT22;30716;41.740;-70.400;2022-10-22T13:49:57;24.10;56.50
44982;DHT22;30716;41.740;-70.400;2022-10-22T13:52:30;24.10;56.50
44982;DHT22;30716;41.740;-70.400;2022-10-22T13:54:58;24.10;56.50
44982;DHT22;30716;41.740;-70.400;2022-10-22T13:57:24;24.10;56.40
44982;DHT22;30716;41.740;-70.400;2022-10-22T13:59:50;24.10;57.20
44982;DHT22;30716;41.740;-70.400;2022-10-22T14:02:17;24.10;56.50
44982;DHT22;30716;41.740;-70.400;2022-10-22T14:04:43;24.20;56.50
44982;DHT22;30716;41.740;-70.400;2022-10-22T14:07:14;24.10;56.40
44982;DHT22;30716;41.740;-70.400;2022-10-22T14:09:42;24.20;56.60
44982;DHT22;30716;41.740;-70.400;2022-10-22T14:12:13;24.20;56.50
44982;DHT22;30716;41.740;-70.400;2022-10-22T14:14:40;24.20;56.50
44982;DHT22;30716;41.740;-70.400;2022-10-22T14:17:12;24.20;56.50
44982;DHT22;30716;41.740;-70.400;2022-10-22T14:19:43;24.20;56.50
44982;DHT22;30716;41.740;-70.400;2022-10-22T14:22:19;24.20;56.50
44982;DHT22;30716;41.740;-70.400;2022-10-22T14:24:46;24.20;56.50
44982;DHT22;30716;41.740;-70.400;2022-10-22T14:27:14;24.20;56.50
44982;DHT22;30716;41.740;-70.400;2022-10-22T14:29:40;24.20;56.50
44982;DHT22;30716;41.740;-70.400;2022-10-22T14:32:17;24.20;56.50
44982;DHT22;30716;41.740;-70.400;2022-10-22T14:34:46;24.30;57.30
44982;DHT22;30716;41.740;-70.400;2022-10-22T14:37:17;24.20;56.50
44982;DHT22;30716;41.740;-70.400;2022-10-22T14:39:46;24.20;56.50
44982;DHT22;30716;41.740;-70.400;2022-10-22T14:42:17;24.20;56.50
44982;DHT22;30716;41.740;-70.400;2022-10-22T14:44:44;24.20;56.50
44982;DHT22;30716;41.740;-70.400;2022-10-22T14:47:10;24.20;56.60
44982;DHT22;30716;41.740;-70.400;2022-10-22T14:49:36;24.20;56.50
44982;DHT22;30716;41.740;-70.400;2022-10-22T14:52:03;24.20;56.50
44982;DHT22;30716;41.740;-70.400;2022-10-22T14:54:29;24.20;56.50
44982;DHT22;30716;41.740;-70.400;2022-10-22T14:56:55;24.20;56.50
44982;DHT22;30716;41.740;-70.400;2022-10-22T14:59:21;24.30;56.70
44982;DHT22;30716;41.740;-70.400;2022-10-22T15:01:47;24.30;56.50
44982;DHT22;30716;41.740;-70.400;2022-10-22T15:04:13;24.30;56.60
44982;DHT22;30716;41.740;-70.400;2022-10-22T15:06:39;24.30;56.70
44982;DHT22;30716;41.740;-70.400;2022-10-22T15:09:05;24.30;56.60
44982;DHT22;30716;41.740;-70.400;2022-10-22T15:11:31;24.30;56.60
44982;DHT22;30716;41.740;-70.400;2022-10-22T15:13:57;24.30;56.70
44982;DHT22;30716;41.740;-70.400;2022-10-22T15:16:23;24.30;56.60
44982;DHT22;30716;41.740;-70.400;2022-10-22T15:18:50;24.30;56.50
44982;DHT22;30716;41.740;-70.400;2022-10-22T15:21:20;24.30;56.60
44982;DHT22;30716;41.740;-70.400;2022-10-22T15:23:47;24.30;56.60
44982;DHT22;30716;41.740;-70.400;2022-10-22T15:26:14;24.30;56.50
44982;DHT22;30716;41.740;-70.400;2022-10-22T15:28:41;24.30;56.60
44982;DHT22;30716;41.740;-70.400;2022-10-22T15:31:09;24.30;56.60
44982;DHT22;30716;41.740;-70.400;2022-10-22T15:33:36;24.30;56.60
44982;DHT22;30716;41.740;-70.400;2022-10-22T15:36:11;24.30;56.60
44982;DHT22;30716;41.740;-70.400;2022-10-22T15:38:38;24.30;56.60
44982;DHT22;30716;41.740;-70.400;2022-10-22T15:41:05;24.40;56.60
44982;DHT22;30716;41.740;-70.400;2022-10-22T15:43:33;24.30;56.50
44982;DHT22;30716;41.740;-70.400;2022-10-22T15:46:11;24.30;56.50
44982;DHT22;30716;41.740;-70.400;2022-10-22T15:48:38;24.30;56.50
44982;DHT22;30716;41.740;-70.400;2022-10-22T15:51:13;24.30;56.50
44982;DHT22;30716;41.740;-70.400;2022-10-22T15:53:40;24.30;56.50
44982;DHT22;30716;41.740;-70.400;2022-10-22T15:56:06;24.30;56.50
44982;DHT22;30716;41.740;-70.400;2022-10-22T15:58:32;24.30;56.50
44982;DHT22;30716;41.740;-70.400;2022-10-22T16:01:07;24.30;56.50
44982;DHT22;30716;41.740;-70.400;2022-10-22T16:03:34;24.30;56.50
44982;DHT22;30716;41.740;-70.400;2022-10-22T16:06:00;24.30;56.50
44982;DHT22;30716;41.740;-70.400;2022-10-22T16:08:27;24.30;56.50
44982;DHT22;30716;41.740;-70.400;2022-10-22T16:10:53;24.30;56.50
44982;DHT22;30716;41.740;-70.400;2022-10-22T16:13:20;24.30;56.60
44982;DHT22;30716;41.740;-70.400;2022-10-22T16:15:49;24.30;56.60
44982;DHT22;30716;41.740;-70.400;2022-10-22T16:18:15;24.30;56.60
44982;DHT22;30716;41.740;-70.400;2022-10-22T16:20:41;24.30;56.60
44982;DHT22;30716;41.740;-70.400;2022-10-22T16:23:08;24.30;56.50
44982;DHT22;30716;41.740;-70.400;2022-10-22T16:25:38;24.30;56.60
44982;DHT22;30716;41.740;-70.400;2022-10-22T16:28:05;24.30;56.70
44982;DHT22;30716;41.740;-70.400;2022-10-22T16:30:35;24.30;56.40
44982;DHT22;30716;41.740;-70.400;2022-10-22T16:33:03;24.20;56.50
44982;DHT22;30716;41.740;-70.400;2022-10-22T16:35:29;24.30;56.70
44982;DHT22;30716;41.740;-70.400;2022-10-22T16:37:56;24.30;56.80
44982;DHT22;30716;41.740;-70.400;2022-10-22T16:40:22;24.20;56.60
44982;DHT22;30716;41.740;-70.400;2022-10-22T16:42:48;24.30;56.70
44982;DHT22;30716;41.740;-70.400;2022-10-22T16:45:15;24.30;56.70
44982;DHT22;30716;41.740;-70.400;2022-10-22T16:47:41;24.30;56.70
44982;DHT22;30716;41.740;-70.400;2022-10-22T16:50:10;24.30;56.70
44982;DHT22;30716;41.740;-70.400;2022-10-22T16:52:36;24.20;56.60
44982;DHT22;30716;41.740;-70.400;2022-10-22T16:55:02;24.30;56.70
44982;DHT22;30716;41.740;-70.400;2022-10-22T16:57:29;24.20;56.70